Daytona Beach, FL

2:24 AM EST on February 13, 2016 (GMT -0500)
Daytona State College | | Change Station
CLOSE
Current Station
Personal Weather Station
Location: Daytona Beach, FL
Elevation: 0 ft
Nearby Weather Stations

Elev 0 ft 29.20 °N, 81.05 °W | Updated 10 minutes ago

Scattered Clouds
Scattered Clouds
59.7 °F
Feels Like 59.7 °F
N
4.0
Wind Variable Wind from SSW
Gusts 14.0 mph

Today
High -- | Low -- °F
--% Chance of Precip.
Yesterday
High -- | Low -- °F
Precip. -- in
Pressure 30.16 in
Visibility 10.0 miles
Clouds Scattered Clouds 2400 ft
Dew Point 57 °F
Humidity 89%
Rainfall 0.00 in
Snow Depth Not available.
7:05 AM 6:11 PM
Waxing Crescent, 28% visible
METAR KDAB 130653Z 25008KT 10SM SCT024 15/13 A3016 RMK AO2 SLP211 T01500133 $
Pressure 30.16 in
Visibility 10.0 miles
Clouds Scattered Clouds 2400 ft
Dew Point 57 °F
Humidity 89%
Rainfall 0.00 in
Snow Depth Not available.
7:05 AM 6:11 PM
Waxing Crescent, 28% visible
METAR KDAB 130653Z 25008KT 10SM SCT024 15/13 A3016 RMK AO2 SLP211 T01500133 $

10-Day Weather Forecast

Almanac

Astronomy

Feb. 13, 2016 Rise Set
Actual Time
Civil Twilight
Nautical Twilight
Astronomical Twilight
Moon
Length of Visible Light
Length of Day
Tomorrow will be .
, % of the Moon is Illuminated

Today's Extremes

State Highs State Lows

Community

WunderPhotos

Upload Photos

1,892,526 photos uploaded!

WunderBlog® & News

Nearby

Air Quality

  Air Quality AQ Index Pollutant
Not available.

Snow Depth

Station Depth Elevation

Earthquake Activity

City Distance Mag. Time & Date
Minimum magnitude displayed is 2.5.

Coastal Water Temperatures

Place Temperature

Stations

Nearby Weather Stations

Station Location Temp. Windchill Dew Point Humidity Wind Precip. Elev Updated Type
                   

Watches & Warnings

There are currently no watches in effect.